Tampa Trader — 9V2652 — position and weather

sailwx.info

Track history (hours):
 
Tides and Currents Weather Stations Pressure Air Temp Water Temp Dewpoint Dewpoint Depression Visibility Wind Speed Wind Dir Waves Ship Positions

Tampa Trader

Last reported at 2018-Feb-17 05:38 UTC. Time now 2018-Feb-20 08:09 UTC.
Position N 11°33' W 075°49'.

Length 147 m; draft 7.8 m.

Type: Cargo ship. MMSI: 566607000.

Date/timePositionNaut miles runAvg speedWind from/ knotsBaromVisibWave heightAir tempDewpointWater temp
2018-Feb-17 05:38N 11°33' W 075°49'1 8.5
2018-Feb-17 05:29N 11°32' W 075°49'8 8.5
2018-Feb-17 04:35N 11°24' W 075°48'1 8.1
2018-Feb-17 04:27N 11°23' W 075°48'4 8.3
2018-Feb-17 04:00N 11°20' W 075°47'4 8.6
2018-Feb-17 03:30N 11°15' W 075°46'5 8.8
2018-Feb-17 02:58N 11°11' W 075°46'5 9.3
2018-Feb-17 02:23N 11°05' W 075°45'4 9.7
2018-Feb-17 02:00N 11°02' W 075°44'610.0
2018-Feb-17 01:21N 10°55' W 075°43'410.2
2018-Feb-17 00:58N 10°51' W 075°43'510.7
2018-Feb-17 00:29N 10°46' W 075°42'511.0
2018-Feb-17 00:00N 10°41' W 075°41'610.9
2018-Feb-16 23:28N 10°35' W 075°39'611.6
2018-Feb-16 22:59N 10°30' W 075°38'713.5
2018-Feb-16 22:30N 10°23' W 075°37'51 2.3
2018-Feb-16 00:28N 11°02' W 075°04'19 3.2
2018-Feb-15 18:37N 10°58' W 074°45'0 1.4
2018-Feb-15 18:30N 10°58' W 074°45'3 5.9
2018-Feb-15 17:58N 11°01' W 074°47'4 7.8
2018-Feb-15 17:29N 11°03' W 074°50'4 9.2
2018-Feb-15 17:00N 11°07' W 074°52'4 7.5
2018-Feb-15 16:30N 11°06' W 074°56'  
2018-Feb-07 21:34N 11°03' W 074°50'0 0.1
2018-Feb-07 21:28N 11°03' W 074°50'0 0.0
2018-Feb-07 09:28N 11°03' W 074°50'0 0.0
2018-Feb-07 08:52N 11°03' W 074°50'0 0.0
2018-Feb-07 08:28N 11°03' W 074°50'0 0.0
2018-Feb-07 07:52N 11°03' W 074°50'0 0.0
2018-Feb-07 07:28N 11°03' W 074°50'0 0.0
2018-Feb-07 06:58N 11°03' W 074°50'0 0.0
2018-Feb-07 06:28N 11°03' W 074°50'0 0.0
2018-Feb-07 05:58N 11°03' W 074°50'  
Track history (hours):
 
Tides and Currents Weather Stations Pressure Air Temp Water Temp Dewpoint Dewpoint Depression Visibility Wind Speed Wind Dir Waves Ship Positions

Tampa Trader

Last reported at 2018-Feb-17 05:38 UTC. Time now 2018-Feb-20 08:09 UTC.
Position N 11°33' W 075°49'.

Length 147 m; draft 7.8 m.

Type: Cargo ship. MMSI: 566607000.

Date/timePositionNaut miles runAvg speedWind from/ knotsBaromVisibWave heightAir tempDewpointWater temp
2018-Feb-17 05:38N 11°33' W 075°49'1 8.5
2018-Feb-17 05:29N 11°32' W 075°49'8 8.5
2018-Feb-17 04:35N 11°24' W 075°48'1 8.1
2018-Feb-17 04:27N 11°23' W 075°48'4 8.3
2018-Feb-17 04:00N 11°20' W 075°47'4 8.6
2018-Feb-17 03:30N 11°15' W 075°46'5 8.8
2018-Feb-17 02:58N 11°11' W 075°46'5 9.3
2018-Feb-17 02:23N 11°05' W 075°45'4 9.7
2018-Feb-17 02:00N 11°02' W 075°44'610.0
2018-Feb-17 01:21N 10°55' W 075°43'410.2
2018-Feb-17 00:58N 10°51' W 075°43'510.7
2018-Feb-17 00:29N 10°46' W 075°42'511.0
2018-Feb-17 00:00N 10°41' W 075°41'610.9
2018-Feb-16 23:28N 10°35' W 075°39'611.6
2018-Feb-16 22:59N 10°30' W 075°38'713.5
2018-Feb-16 22:30N 10°23' W 075°37'51 2.3
2018-Feb-16 00:28N 11°02' W 075°04'19 3.2
2018-Feb-15 18:37N 10°58' W 074°45'0 1.4
2018-Feb-15 18:30N 10°58' W 074°45'3 5.9
2018-Feb-15 17:58N 11°01' W 074°47'4 7.8
2018-Feb-15 17:29N 11°03' W 074°50'4 9.2
2018-Feb-15 17:00N 11°07' W 074°52'4 7.5
2018-Feb-15 16:30N 11°06' W 074°56'  
2018-Feb-07 21:34N 11°03' W 074°50'0 0.1
2018-Feb-07 21:28N 11°03' W 074°50'0 0.0
2018-Feb-07 09:28N 11°03' W 074°50'0 0.0
2018-Feb-07 08:52N 11°03' W 074°50'0 0.0
2018-Feb-07 08:28N 11°03' W 074°50'0 0.0
2018-Feb-07 07:52N 11°03' W 074°50'0 0.0
2018-Feb-07 07:28N 11°03' W 074°50'0 0.0
2018-Feb-07 06:58N 11°03' W 074°50'0 0.0
2018-Feb-07 06:28N 11°03' W 074°50'0 0.0
2018-Feb-07 05:58N 11°03' W 074°50'  

Dump ship's entire track history